createdAt,value
2019-04-29T00:02:16.509Z,9.60
2019-04-29T00:04:42.851Z,9.50
2019-04-29T00:07:09.257Z,9.40
2019-04-29T00:09:35.987Z,9.50
2019-04-29T00:12:02.309Z,9.40
2019-04-29T00:15:01.729Z,9.40
2019-04-29T00:17:42.042Z,9.40
2019-04-29T00:20:08.359Z,9.40
2019-04-29T00:22:34.673Z,9.40
2019-04-29T00:25:01.109Z,9.40
2019-04-29T00:27:27.726Z,9.40
2019-04-29T00:29:54.557Z,9.40
2019-04-29T00:32:21.302Z,9.40
2019-04-29T00:34:48.255Z,9.40
2019-04-29T00:37:33.629Z,9.40
2019-04-29T00:40:11.112Z,9.40
2019-04-29T00:45:22.481Z,9.40
2019-04-29T00:47:49.262Z,9.50
2019-04-29T00:50:15.701Z,9.50
2019-04-29T00:52:42.044Z,9.30
2019-04-29T00:55:11.242Z,9.30
2019-04-29T00:57:37.950Z,9.40
2019-04-29T01:00:12.631Z,9.30
2019-04-29T01:02:39.055Z,9.30
2019-04-29T01:05:05.960Z,9.30
2019-04-29T01:07:32.301Z,9.30
2019-04-29T01:09:58.690Z,9.30
2019-04-29T01:12:25.362Z,9.30
2019-04-29T01:14:51.986Z,9.30
2019-04-29T01:17:18.831Z,9.30
2019-04-29T01:19:45.188Z,9.30
2019-04-29T01:22:11.934Z,9.30
2019-04-29T01:24:38.565Z,9.30
2019-04-29T01:27:09.457Z,9.40
2019-04-29T01:29:35.781Z,9.30
2019-04-29T01:32:02.439Z,9.30
2019-04-29T01:34:37.196Z,9.30
2019-04-29T01:37:04.553Z,9.30
2019-04-29T01:39:45.113Z,9.30
2019-04-29T01:42:14.348Z,9.40
2019-04-29T01:44:41.050Z,9.40
2019-04-29T01:47:07.363Z,9.40
2019-04-29T01:49:33.692Z,9.50
2019-04-29T01:52:00.359Z,9.50
2019-04-29T01:54:26.703Z,9.40
2019-04-29T01:56:53.026Z,9.50
2019-04-29T01:59:19.392Z,9.50
2019-04-29T02:01:45.694Z,9.50
2019-04-29T02:04:12.316Z,9.50
2019-04-29T02:06:38.947Z,9.50
2019-04-29T02:09:10.104Z,9.50
2019-04-29T02:11:35.897Z,9.40
2019-04-29T02:14:03.368Z,9.40
2019-04-29T02:16:29.703Z,9.40
2019-04-29T02:18:56.046Z,9.30
2019-04-29T02:21:22.446Z,9.30
2019-04-29T02:23:53.392Z,9.40
2019-04-29T02:26:19.750Z,9.50
2019-04-29T02:28:46.382Z,9.40
2019-04-29T02:31:31.381Z,9.30
2019-04-29T02:33:57.720Z,9.30
2019-04-29T02:36:24.330Z,9.30
2019-04-29T02:38:52.541Z,9.30
2019-04-29T02:41:23.441Z,9.40
2019-04-29T02:43:51.714Z,9.40
2019-04-29T02:46:18.138Z,9.30
2019-04-29T02:48:44.513Z,9.20
2019-04-29T02:51:12.774Z,9.30
2019-04-29T02:53:39.225Z,9.40
2019-04-29T02:56:05.575Z,9.20
2019-04-29T02:58:34.091Z,9.30
2019-04-29T03:01:19.093Z,9.30
2019-04-29T03:04:02.429Z,9.10
2019-04-29T03:06:28.793Z,9.10
2019-04-29T03:08:55.090Z,9.10
2019-04-29T03:11:21.532Z,9.20
2019-04-29T03:13:48.156Z,9.20
2019-04-29T03:16:14.617Z,9.10
2019-04-29T03:18:43.057Z,9.20
2019-04-29T03:21:11.384Z,9.10
2019-04-29T03:23:37.727Z,9.20
2019-04-29T03:26:04.102Z,9.10
2019-04-29T03:28:30.741Z,9.10
2019-04-29T03:30:57.098Z,9.10
2019-04-29T03:33:23.917Z,9.10
2019-04-29T03:35:50.235Z,9.10
2019-04-29T03:38:16.873Z,9.20
2019-04-29T03:40:43.524Z,9.20
2019-04-29T03:43:09.851Z,9.20
2019-04-29T03:45:36.169Z,9.20
2019-04-29T03:48:03.328Z,9.10
2019-04-29T03:50:30.074Z,9.20
2019-04-29T03:52:56.375Z,9.20
2019-04-29T03:55:38.245Z,9.30
2019-04-29T03:57:50.910Z,9.40
2019-04-29T04:00:18.304Z,9.30
2019-04-29T04:03:03.101Z,9.40
2019-04-29T04:05:46.309Z,9.30
2019-04-29T04:08:17.804Z,9.20
2019-04-29T04:10:44.153Z,9.30
2019-04-29T04:13:10.531Z,9.30
2019-04-29T04:15:37.228Z,9.30
2019-04-29T04:18:05.494Z,9.30
2019-04-29T04:20:32.223Z,9.30
2019-04-29T04:22:58.587Z,9.20
2019-04-29T04:25:24.909Z,9.20
2019-04-29T04:27:51.634Z,9.20
2019-04-29T04:30:19.221Z,9.20
2019-04-29T04:32:45.546Z,9.30
2019-04-29T04:35:12.054Z,9.30
2019-04-29T04:37:38.369Z,9.40
2019-04-29T04:40:07.380Z,9.40
2019-04-29T04:42:33.674Z,9.40
2019-04-29T04:45:00.017Z,9.50
2019-04-29T04:47:27.411Z,9.40
2019-04-29T04:49:54.787Z,9.40
2019-04-29T04:52:21.128Z,9.40
2019-04-29T04:54:49.710Z,9.40
2019-04-29T04:57:16.027Z,9.40
2019-04-29T04:59:43.762Z,9.50
2019-04-29T05:02:10.397Z,9.60
2019-04-29T05:04:37.198Z,9.30
2019-04-29T05:07:04.035Z,9.30
2019-04-29T05:09:30.424Z,9.40
2019-04-29T05:11:56.787Z,9.50
2019-04-29T05:14:23.125Z,9.30
2019-04-29T05:16:50.665Z,9.30
2019-04-29T05:19:17.014Z,9.20
2019-04-29T05:21:43.923Z,9.20
2019-04-29T05:24:11.348Z,9.20
2019-04-29T05:26:37.787Z,9.20
2019-04-29T05:29:04.444Z,9.00
2019-04-29T05:31:30.792Z,9.10
2019-04-29T05:33:57.233Z,8.90
2019-04-29T05:36:34.031Z,8.90
2019-04-29T05:39:07.806Z,9.00
2019-04-29T05:41:34.903Z,9.00
2019-04-29T05:44:10.303Z,9.10
2019-04-29T05:46:38.896Z,9.00
2019-04-29T05:49:07.652Z,8.90
2019-04-29T05:51:43.041Z,8.90
2019-04-29T05:54:14.227Z,8.90
2019-04-29T05:56:40.594Z,8.80
2019-04-29T05:59:08.497Z,8.80
2019-04-29T06:01:35.552Z,8.80
2019-04-29T06:04:02.120Z,8.70
2019-04-29T06:06:28.786Z,8.60
2019-04-29T06:08:55.096Z,8.70
2019-04-29T06:11:23.161Z,8.60
2019-04-29T06:13:49.703Z,8.60
2019-04-29T06:16:20.911Z,8.80
2019-04-29T06:18:44.275Z,8.70
2019-04-29T06:21:10.615Z,8.80
2019-04-29T06:23:36.947Z,8.90
2019-04-29T06:26:03.263Z,8.70
2019-04-29T06:28:29.609Z,8.60
2019-04-29T06:30:56.287Z,8.40
2019-04-29T06:33:24.242Z,8.40
2019-04-29T06:35:56.937Z,8.50
2019-04-29T06:38:20.906Z,8.60
2019-04-29T06:40:47.270Z,8.60
2019-04-29T06:43:13.617Z,8.60
2019-04-29T06:45:39.979Z,8.60
2019-04-29T06:48:06.641Z,8.80
2019-04-29T06:50:34.306Z,8.70
2019-04-29T06:53:00.616Z,8.70
2019-04-29T06:55:27.004Z,8.60
2019-04-29T06:57:53.322Z,8.60
2019-04-29T07:00:22.321Z,8.60
2019-04-29T07:02:49.874Z,8.70
2019-04-29T07:05:16.215Z,8.70
2019-04-29T07:07:42.536Z,8.60
2019-04-29T07:10:09.241Z,8.60
2019-04-29T07:12:36.702Z,8.70
2019-04-29T07:15:07.759Z,8.60
2019-04-29T07:17:36.597Z,8.60
2019-04-29T07:20:03.185Z,8.50
2019-04-29T07:22:31.224Z,8.40
2019-04-29T07:24:57.737Z,8.50
2019-04-29T07:27:24.537Z,8.60
2019-04-29T07:29:50.964Z,8.60
2019-04-29T07:32:18.696Z,8.70
2019-04-29T07:34:45.012Z,8.60
2019-04-29T07:37:11.341Z,8.60
2019-04-29T07:39:39.081Z,8.80
2019-04-29T07:42:05.695Z,8.70
2019-04-29T07:44:43.830Z,8.70
2019-04-29T07:47:02.652Z,8.60
2019-04-29T07:49:29.290Z,8.60
2019-04-29T07:51:55.679Z,8.60
2019-04-29T07:54:22.008Z,8.50
2019-04-29T07:56:48.707Z,8.60
2019-04-29T07:59:15.338Z,8.60
2019-04-29T08:01:41.993Z,8.70
2019-04-29T08:04:08.343Z,8.80
2019-04-29T08:06:38.118Z,8.90
2019-04-29T08:09:08.039Z,8.80
2019-04-29T08:11:34.714Z,8.90
2019-04-29T08:14:02.656Z,8.80
2019-04-29T08:16:29.287Z,8.60
2019-04-29T08:18:55.674Z,8.30
2019-04-29T08:21:21.998Z,8.30
2019-04-29T08:23:48.701Z,8.20
2019-04-29T08:26:15.429Z,8.20
2019-04-29T08:28:43.161Z,8.20
2019-04-29T08:31:09.463Z,8.10
2019-04-29T08:33:35.973Z,8.20
2019-04-29T08:36:02.877Z,8.20
2019-04-29T08:38:30.669Z,8.10
2019-04-29T08:40:57.408Z,8.10
2019-04-29T08:43:26.579Z,8.30
2019-04-29T08:45:55.188Z,8.60
2019-04-29T08:48:21.556Z,8.80
2019-04-29T08:50:47.888Z,8.80
2019-04-29T08:53:14.497Z,8.90
2019-04-29T08:55:41.096Z,9.00
2019-04-29T08:58:11.191Z,9.00
2019-04-29T09:00:35.980Z,8.90
2019-04-29T09:03:02.579Z,9.10
2019-04-29T09:05:29.168Z,9.10
2019-04-29T09:07:57.216Z,9.00
2019-04-29T09:10:24.179Z,9.00
2019-04-29T09:12:50.888Z,8.90
2019-04-29T09:15:17.316Z,8.90
2019-04-29T09:17:43.654Z,8.80
2019-04-29T09:20:10.306Z,8.80
2019-04-29T09:22:38.594Z,8.70
2019-04-29T09:25:16.718Z,8.80
2019-04-29T09:27:46.947Z,8.80
2019-04-29T09:30:15.106Z,8.70
2019-04-29T09:32:41.519Z,8.60
2019-04-29T09:35:08.448Z,8.60
2019-04-29T09:37:35.780Z,8.60
2019-04-29T09:40:06.986Z,8.60
2019-04-29T09:42:38.491Z,8.70
2019-04-29T09:45:07.154Z,8.70
2019-04-29T09:47:33.822Z,8.70
2019-04-29T09:50:00.178Z,8.50
2019-04-29T09:52:26.595Z,8.40
2019-04-29T09:54:53.730Z,8.60
2019-04-29T09:57:20.368Z,8.60
2019-04-29T09:59:48.595Z,8.50
2019-04-29T10:02:33.189Z,8.60
2019-04-29T10:05:19.993Z,8.70
2019-04-29T10:07:46.755Z,8.60
2019-04-29T10:10:13.713Z,8.50
2019-04-29T10:12:40.148Z,8.60
2019-04-29T10:15:09.025Z,8.60
2019-04-29T10:17:40.089Z,8.50
2019-04-29T10:20:10.714Z,8.50
2019-04-29T10:22:37.445Z,8.60
2019-04-29T10:25:05.274Z,8.60
2019-04-29T10:27:31.937Z,8.60
2019-04-29T10:29:58.268Z,8.70
2019-04-29T10:32:24.713Z,8.50
2019-04-29T10:34:51.479Z,8.70
2019-04-29T10:37:17.803Z,8.80
2019-04-29T10:39:52.047Z,9.00
2019-04-29T10:42:24.703Z,9.00
2019-04-29T10:44:52.934Z,9.30
2019-04-29T10:47:21.444Z,9.30
2019-04-29T10:49:56.138Z,9.30
2019-04-29T10:52:23.128Z,9.40
2019-04-29T10:54:51.159Z,9.40
2019-04-29T10:57:19.784Z,9.40
2019-04-29T10:59:50.275Z,9.50
2019-04-29T11:02:19.582Z,9.40
2019-04-29T11:04:48.228Z,9.40
2019-04-29T11:07:18.722Z,9.50
2019-04-29T11:09:50.769Z,9.50
2019-04-29T11:12:18.662Z,9.40
2019-04-29T11:14:45.293Z,9.50
2019-04-29T11:17:16.414Z,9.50
2019-04-29T11:19:41.650Z,9.50
2019-04-29T11:22:08.636Z,9.50
2019-04-29T11:24:34.967Z,9.50
2019-04-29T11:27:12.591Z,9.50
2019-04-29T11:29:40.502Z,9.50
2019-04-29T11:32:08.831Z,9.50
2019-04-29T11:34:55.107Z,9.60
2019-04-29T11:37:24.197Z,9.40
2019-04-29T11:39:51.736Z,9.40
2019-04-29T11:42:18.656Z,9.40
2019-04-29T11:44:45.112Z,9.70
2019-04-29T11:47:11.508Z,9.70
2019-04-29T11:49:40.126Z,9.90
2019-04-29T11:52:09.693Z,9.80
2019-04-29T11:54:35.327Z,9.80
2019-04-29T11:57:02.195Z,9.90
2019-04-29T11:59:46.018Z,9.80
2019-04-29T12:02:44.581Z,9.80
2019-04-29T12:04:56.303Z,9.80
2019-04-29T12:07:31.729Z,10.00
2019-04-29T12:09:51.289Z,9.90
2019-04-29T12:12:18.829Z,9.90
2019-04-29T12:14:53.423Z,9.90
2019-04-29T12:17:21.658Z,9.90
2019-04-29T12:19:58.835Z,9.90
2019-04-29T12:22:30.322Z,10.10
2019-04-29T12:24:53.492Z,10.10
2019-04-29T12:27:21.611Z,9.70
2019-04-29T12:29:48.947Z,9.70
2019-04-29T12:32:27.597Z,9.70
2019-04-29T12:34:56.750Z,9.90
2019-04-29T12:37:35.639Z,9.80
2019-04-29T12:40:09.740Z,9.80
2019-04-29T12:42:41.506Z,9.80
2019-04-29T12:45:25.992Z,9.90
2019-04-29T12:47:52.710Z,9.90
2019-04-29T12:50:21.702Z,9.70
2019-04-29T12:52:47.493Z,9.80
2019-04-29T12:55:20.206Z,9.80
2019-04-29T12:57:44.154Z,9.90
2019-04-29T13:00:12.949Z,10.00
2019-04-29T13:03:00.259Z,10.10
2019-04-29T13:05:57.550Z,10.20
2019-04-29T13:08:35.436Z,10.20
2019-04-29T13:11:14.746Z,10.30
2019-04-29T13:13:39.634Z,10.20
2019-04-29T13:16:27.515Z,10.30
2019-04-29T13:19:12.515Z,10.20
2019-04-29T13:21:39.161Z,10.20
2019-04-29T13:24:13.841Z,10.20
2019-04-29T13:26:36.927Z,10.20
2019-04-29T13:29:01.901Z,10.10
2019-04-29T13:31:37.929Z,10.20
2019-04-29T13:34:14.576Z,10.10
2019-04-29T13:36:31.266Z,10.10
2019-04-29T13:38:57.690Z,10.20
2019-04-29T13:41:25.919Z,10.30
2019-04-29T13:43:54.307Z,10.40
2019-04-29T13:46:22.930Z,10.30
2019-04-29T13:49:13.897Z,10.30
2019-04-29T13:51:43.370Z,10.30
2019-04-29T13:54:10.201Z,10.40
2019-04-29T13:56:54.672Z,10.40
2019-04-29T13:59:10.606Z,10.40
2019-04-29T14:01:57.837Z,10.40
2019-04-29T14:04:26.233Z,10.40
2019-04-29T14:06:57.035Z,10.50
2019-04-29T14:09:27.656Z,10.30
2019-04-29T14:12:01.407Z,10.30
2019-04-29T14:14:22.978Z,10.30
2019-04-29T14:17:06.756Z,10.30
2019-04-29T14:19:39.473Z,10.40
2019-04-29T14:21:47.842Z,10.30
2019-04-29T14:24:14.203Z,10.30
2019-04-29T14:26:46.094Z,10.30
2019-04-29T14:29:11.270Z,10.20
2019-04-29T14:31:37.729Z,10.30
2019-04-29T14:34:06.306Z,10.40
2019-04-29T14:36:32.960Z,10.40
2019-04-29T14:38:59.402Z,10.50
2019-04-29T14:41:29.342Z,10.50
2019-04-29T14:44:14.397Z,10.30
2019-04-29T14:46:44.118Z,10.40
2019-04-29T14:49:18.460Z,10.50
2019-04-29T14:51:45.092Z,10.40
2019-04-29T14:54:11.524Z,10.50
2019-04-29T14:56:38.146Z,10.40
2019-04-29T14:59:07.426Z,10.50
2019-04-29T15:01:35.890Z,10.60
2019-04-29T15:04:18.272Z,10.60
2019-04-29T15:06:41.552Z,10.60
2019-04-29T15:09:16.982Z,10.70
2019-04-29T15:11:45.455Z,10.80
2019-04-29T15:14:25.902Z,10.80
2019-04-29T15:17:12.993Z,10.80
2019-04-29T15:19:55.837Z,10.70
2019-04-29T15:22:24.801Z,10.80
2019-04-29T15:24:51.615Z,10.90
2019-04-29T15:27:18.207Z,10.80
2019-04-29T15:29:46.111Z,10.80
2019-04-29T15:32:12.692Z,10.80
2019-04-29T15:34:43.700Z,10.80
2019-04-29T15:37:07.407Z,10.80
2019-04-29T15:39:33.767Z,10.90
2019-04-29T15:42:01.929Z,10.80
2019-04-29T15:44:29.836Z,10.80
2019-04-29T15:46:56.382Z,10.80
2019-04-29T15:49:24.880Z,10.80
2019-04-29T15:51:51.619Z,10.90
2019-04-29T15:54:18.017Z,10.80
2019-04-29T15:56:44.375Z,10.80
2019-04-29T15:59:11.273Z,10.80
2019-04-29T16:01:41.353Z,10.70
2019-04-29T16:04:08.092Z,10.80
2019-04-29T16:06:40.030Z,10.80
2019-04-29T16:09:08.496Z,10.80
2019-04-29T16:11:37.108Z,10.80
2019-04-29T16:14:10.046Z,10.90
2019-04-29T16:16:35.960Z,11.00
2019-04-29T16:19:08.352Z,11.00
2019-04-29T16:21:39.052Z,11.00
2019-04-29T16:24:01.845Z,10.90
2019-04-29T16:26:30.340Z,11.00
2019-04-29T16:28:57.523Z,11.20
2019-04-29T16:31:24.174Z,11.10
2019-04-29T16:33:54.688Z,11.00
2019-04-29T16:36:22.888Z,11.10
2019-04-29T16:38:51.505Z,11.10
2019-04-29T16:41:37.572Z,11.20
2019-04-29T16:44:07.326Z,11.20
2019-04-29T16:46:37.571Z,11.30
2019-04-29T16:49:02.836Z,11.30
2019-04-29T16:51:29.308Z,11.30
2019-04-29T16:53:57.151Z,11.30
2019-04-29T16:56:23.641Z,11.10
2019-04-29T16:58:50.576Z,11.20
2019-04-29T17:01:17.165Z,11.20
2019-04-29T17:03:43.593Z,11.30
2019-04-29T17:06:09.956Z,11.40
2019-04-29T17:09:02.918Z,11.40
2019-04-29T17:11:30.881Z,11.40
2019-04-29T17:13:57.285Z,11.40
2019-04-29T17:16:25.672Z,11.30
2019-04-29T17:18:52.588Z,11.30
2019-04-29T17:21:19.224Z,11.40
2019-04-29T17:23:45.865Z,11.30
2019-04-29T17:26:12.192Z,11.30
2019-04-29T17:28:58.811Z,11.40
2019-04-29T17:31:27.519Z,11.50
2019-04-29T17:33:57.152Z,11.40
2019-04-29T17:36:25.815Z,11.40
2019-04-29T17:38:52.493Z,11.40
2019-04-29T17:41:18.814Z,11.30
2019-04-29T17:43:47.056Z,11.40
2019-04-29T17:46:32.097Z,11.40
2019-04-29T17:49:00.549Z,11.30
2019-04-29T17:51:29.344Z,11.30
2019-04-29T17:53:57.491Z,11.40
2019-04-29T17:56:32.289Z,11.40
2019-04-29T17:59:17.096Z,11.40
2019-04-29T18:01:48.491Z,11.40
2019-04-29T18:04:20.117Z,11.40
2019-04-29T18:07:10.423Z,11.40
2019-04-29T18:09:44.969Z,11.30
2019-04-29T18:12:15.047Z,11.30
2019-04-29T18:14:41.973Z,11.30
2019-04-29T18:17:26.906Z,11.30
2019-04-29T18:19:53.046Z,11.20
2019-04-29T18:22:34.802Z,11.30
2019-04-29T18:25:03.607Z,11.30
2019-04-29T18:27:36.855Z,11.40
2019-04-29T18:30:06.976Z,11.50
2019-04-29T18:32:36.396Z,11.50
2019-04-29T18:35:03.952Z,11.50
2019-04-29T18:37:34.232Z,11.40
2019-04-29T18:40:02.343Z,11.40
2019-04-29T18:42:28.329Z,11.40
2019-04-29T18:45:00.234Z,11.30
2019-04-29T18:47:27.577Z,11.20
2019-04-29T18:49:56.518Z,11.30
2019-04-29T18:52:27.761Z,11.40
2019-04-29T18:54:51.740Z,11.30
2019-04-29T18:57:27.839Z,11.40
2019-04-29T18:59:46.693Z,11.30
2019-04-29T19:02:14.586Z,11.30
2019-04-29T19:04:59.851Z,11.40
2019-04-29T19:07:26.921Z,11.40
2019-04-29T19:09:55.225Z,11.40
2019-04-29T19:12:22.425Z,11.40
2019-04-29T19:14:49.046Z,11.40
2019-04-29T19:17:16.978Z,11.40
2019-04-29T19:19:45.211Z,11.50
2019-04-29T19:22:15.685Z,11.40
2019-04-29T19:24:44.330Z,11.40
2019-04-29T19:27:11.509Z,11.40
2019-04-29T19:29:38.859Z,11.40
2019-04-29T19:32:06.588Z,11.40
2019-04-29T19:34:40.872Z,11.50
2019-04-29T19:37:01.721Z,11.50
2019-04-29T19:39:29.045Z,11.50
2019-04-29T19:41:55.777Z,11.60
2019-04-29T19:44:26.490Z,11.60
2019-04-29T19:46:50.691Z,11.60
2019-04-29T19:49:17.147Z,11.60
2019-04-29T19:51:47.245Z,11.70
2019-04-29T19:54:16.915Z,11.70
2019-04-29T19:56:41.248Z,11.70
2019-04-29T19:59:12.351Z,11.70
2019-04-29T20:01:37.921Z,11.70
2019-04-29T20:04:15.868Z,11.80
2019-04-29T20:06:38.841Z,11.70
2019-04-29T20:09:14.743Z,11.70
2019-04-29T20:11:37.785Z,11.70
2019-04-29T20:14:08.601Z,11.60
2019-04-29T20:16:57.303Z,11.60
2019-04-29T20:19:28.145Z,11.70
2019-04-29T20:22:00.030Z,11.70
2019-04-29T20:24:26.124Z,11.80
2019-04-29T20:26:52.703Z,11.70
2019-04-29T20:29:20.147Z,11.80
2019-04-29T20:31:51.571Z,11.80
2019-04-29T20:34:20.324Z,11.80
2019-04-29T20:36:45.527Z,11.80
2019-04-29T20:39:17.074Z,11.80
2019-04-29T20:41:44.419Z,11.80
2019-04-29T20:44:09.643Z,11.80
2019-04-29T20:46:45.426Z,11.80
2019-04-29T20:49:07.684Z,11.70
2019-04-29T20:51:48.954Z,11.70
2019-04-29T20:54:09.125Z,11.70
2019-04-29T20:56:36.029Z,11.60
2019-04-29T20:59:09.041Z,11.50
2019-04-29T21:01:38.197Z,11.50
2019-04-29T21:04:01.179Z,11.40
2019-04-29T21:06:27.547Z,11.40
2019-04-29T21:08:55.161Z,11.50
2019-04-29T21:11:26.286Z,11.50
2019-04-29T21:13:57.230Z,11.60
2019-04-29T21:16:32.023Z,11.50
2019-04-29T21:19:00.277Z,11.50
2019-04-29T21:21:26.729Z,11.60
2019-04-29T21:23:55.277Z,11.60
2019-04-29T21:26:22.122Z,11.60
2019-04-29T21:28:48.499Z,11.60
2019-04-29T21:31:18.544Z,11.60
2019-04-29T21:33:43.428Z,11.60
2019-04-29T21:36:15.920Z,11.60
2019-04-29T21:39:01.979Z,11.60
2019-04-29T21:41:29.341Z,11.50
2019-04-29T21:43:56.260Z,11.60
2019-04-29T21:46:27.811Z,11.50
2019-04-29T21:48:51.044Z,11.50
2019-04-29T21:51:17.540Z,11.40
2019-04-29T21:53:45.790Z,11.30
2019-04-29T21:56:12.270Z,11.20
2019-04-29T21:58:38.896Z,11.20
2019-04-29T22:01:06.725Z,11.20
2019-04-29T22:03:33.387Z,11.10
2019-04-29T22:06:00.430Z,11.20
2019-04-29T22:08:29.831Z,11.10
2019-04-29T22:10:58.310Z,11.10
2019-04-29T22:13:24.876Z,11.00
2019-04-29T22:15:51.827Z,11.00
2019-04-29T22:18:18.264Z,11.00
2019-04-29T22:20:45.006Z,10.90
2019-04-29T22:23:14.323Z,10.90
2019-04-29T22:25:41.161Z,10.80
2019-04-29T22:28:10.816Z,10.80
2019-04-29T22:30:36.978Z,10.70
2019-04-29T22:33:05.226Z,10.70
2019-04-29T22:35:32.759Z,10.70
2019-04-29T22:38:00.580Z,10.60
2019-04-29T22:40:27.222Z,10.60
2019-04-29T22:43:05.118Z,10.50
2019-04-29T22:45:29.608Z,10.40
2019-04-29T22:48:12.131Z,10.40
2019-04-29T22:50:24.823Z,10.30
2019-04-29T22:52:51.235Z,10.20
2019-04-29T22:55:18.632Z,10.20
2019-04-29T22:57:46.838Z,10.20
2019-04-29T23:00:15.421Z,10.20
2019-04-29T23:02:43.958Z,10.30
2019-04-29T23:05:10.638Z,10.20
2019-04-29T23:07:37.777Z,10.20
2019-04-29T23:10:06.004Z,10.20
2019-04-29T23:12:35.050Z,10.10
2019-04-29T23:15:03.069Z,10.10
2019-04-29T23:17:29.789Z,10.10
2019-04-29T23:20:01.088Z,9.90
2019-04-29T23:22:39.399Z,9.90
2019-04-29T23:25:07.768Z,9.80
2019-04-29T23:27:36.068Z,9.60
2019-04-29T23:30:05.711Z,9.50
2019-04-29T23:32:32.053Z,9.40
2019-04-29T23:35:01.742Z,9.40
2019-04-29T23:37:29.347Z,9.30
2019-04-29T23:39:55.801Z,9.10
2019-04-29T23:42:22.278Z,9.10
2019-04-29T23:44:48.967Z,9.00
2019-04-29T23:47:15.857Z,8.90
2019-04-29T23:49:46.680Z,8.80
2019-04-29T23:52:13.422Z,8.70
2019-04-29T23:54:46.957Z,8.60
2019-04-29T23:57:23.585Z,8.60
